Terminal Aerodrome Forecast
Issued by NWS

Home | Current Version | Previous Version | Text Only | Print | Product List | Glossary On
Versions: 1 2 3 4 5 6 7 8 9 10 11 12 13 14 15 16 17 18 19 20 21 22
000
FTUS43 KILX 060520
TAFDEC
TAF
KDEC 060520Z 0606/0706 16007KT 5SM BR SKC
     FM060900 16004KT 3SM BR SKC
     FM061400 18012KT P6SM SCT030
     FM061900 19012G18KT P6SM SCT050
     FM070300 19009KT P6SM SCT040 BKN250=

USA.gov is the U.S. government's official web portal to all federal, state and local government web resources and services.